Time;durP1;ratioP1;P1;durP2;ratioP2;P2;SDS_P1;SDS_P2;PMS_P1;PMS_P2;Temp;Humidity;BMP_temperature;BMP_pressure;BME280_temperature;BME280_humidity;BME280_pressure;Samples;Min_cycle;Max_cycle;Signal;HPM_P1;HPM_P2
2022/06/07 00:01:23;;;;;;;2.47;1.60;;;16.90;99.90;;;;;;4930208;29;20439;-85
2022/06/07 00:03:49;;;;;;;2.80;2.57;;;16.90;99.90;;;;;;4929834;29;20471;-85
2022/06/07 00:06:15;;;;;;;4.50;2.20;;;16.90;99.90;;;;;;4926912;29;20189;-84
2022/06/07 00:08:40;;;;;;;1.37;1.20;;;16.90;99.90;;;;;;4930999;29;20269;-84
2022/06/07 00:11:06;;;;;;;1.90;1.70;;;16.90;99.90;;;;;;4922499;29;20181;-84
2022/06/07 00:13:32;;;;;;;3.67;1.57;;;16.90;99.90;;;;;;4924934;29;20312;-84
2022/06/07 00:15:58;;;;;;;2.67;1.80;;;16.90;99.90;;;;;;4925921;29;20260;-83
2022/06/07 00:18:23;;;;;;;5.00;1.67;;;16.80;99.90;;;;;;4922478;29;20285;-85
2022/06/07 00:20:49;;;;;;;4.00;1.50;;;16.90;99.90;;;;;;4934977;28;20442;-84
2022/06/07 00:23:18;;;;;;;2.77;1.60;;;16.80;99.90;;;;;;4921188;29;20224;-85
2022/06/07 00:25:46;;;;;;;3.13;1.30;;;16.80;99.90;;;;;;4920317;29;20189;-86
2022/06/07 00:28:12;;;;;;;2.77;1.43;;;16.80;99.90;;;;;;4922304;29;20547;-85
2022/06/07 00:30:38;;;;;;;2.00;1.57;;;;;;;;;;4925683;29;20437;-86
2022/06/07 00:33:04;;;;;;;3.40;1.07;;;16.80;99.90;;;;;;4925475;29;20483;-86
2022/06/07 00:35:30;;;;;;;3.10;1.50;;;16.90;99.90;;;;;;4927249;29;20854;-85
2022/06/07 00:37:56;;;;;;;1.00;0.90;;;16.80;99.90;;;;;;4924345;29;20257;-84
2022/06/07 00:40:21;;;;;;;4.43;1.70;;;16.80;99.90;;;;;;4918006;29;20449;-84
2022/06/07 00:42:47;;;;;;;4.20;1.00;;;16.70;99.90;;;;;;4941674;29;20200;-84
2022/06/07 00:45:21;;;;;;;2.23;1.20;;;16.70;99.90;;;;;;4937349;29;20197;-83
2022/06/07 00:47:48;;;;;;;1.20;1.00;;;16.70;99.90;;;;;;4937634;29;20213;-84
2022/06/07 00:50:49;;;;;;;2.87;1.20;;;16.70;99.90;;;;;;4934339;29;20443;-85
2022/06/07 00:53:28;;;;;;;2.20;1.00;;;16.60;99.90;;;;;;4905339;29;20465;-84
2022/06/07 00:55:54;;;;;;;4.70;1.60;;;16.60;99.90;;;;;;4931280;29;20454;-84
2022/06/07 00:58:21;;;;;;;3.27;1.73;;;16.50;99.90;;;;;;4933516;29;20535;-84
2022/06/07 01:00:47;;;;;;;1.27;1.17;;;16.50;99.90;;;;;;4936590;29;20492;-85
2022/06/07 01:03:13;;;;;;;3.40;1.10;;;16.50;99.90;;;;;;4937473;29;20461;-85
2022/06/07 01:05:39;;;;;;;3.67;1.43;;;16.50;99.90;;;;;;4937384;29;20193;-85
2022/06/07 01:10:53;;;;;;;1.10;1.00;;;16.50;99.90;;;;;;4938959;29;20472;-85
2022/06/07 01:13:22;;;;;;;3.30;1.47;;;16.40;99.90;;;;;;4940559;29;20499;-85
2022/06/07 01:15:48;;;;;;;3.47;1.27;;;16.50;99.90;;;;;;4934142;29;20452;-84
2022/06/07 01:18:16;;;;;;;1.97;1.50;;;16.40;99.90;;;;;;4939041;29;20818;-85
2022/06/07 01:20:41;;;;;;;1.80;1.07;;;16.40;99.90;;;;;;4934067;29;20446;-85
2022/06/07 01:23:07;;;;;;;2.00;1.40;;;16.30;99.90;;;;;;4929079;29;20529;-86
2022/06/07 01:25:34;;;;;;;1.53;1.30;;;16.30;99.90;;;;;;4929522;29;20190;-86
2022/06/07 01:28:00;;;;;;;2.80;1.33;;;16.30;99.90;;;;;;4934294;29;20531;-85
2022/06/07 01:30:25;;;;;;;2.50;1.10;;;16.20;99.90;;;;;;4930883;29;21141;-86
2022/06/07 01:32:52;;;;;;;1.57;1.20;;;16.20;99.90;;;;;;4927841;29;20196;-85
2022/06/07 01:35:17;;;;;;;5.13;1.20;;;16.20;99.90;;;;;;4934605;29;20192;-84
2022/06/07 01:37:43;;;;;;;2.07;1.10;;;16.10;99.90;;;;;;4937639;29;20425;-84
2022/06/07 01:42:53;;;;;;;5.27;1.60;;;16.20;99.90;;;;;;4942115;29;20219;-84
2022/06/07 01:45:20;;;;;;;2.50;1.20;;;16.20;99.90;;;;;;4940748;29;20452;-83
2022/06/07 01:47:46;;;;;;;6.50;1.40;;;16.10;99.90;;;;;;4937736;29;20205;-83
2022/06/07 01:50:11;;;;;;;2.40;1.37;;;16.00;99.90;;;;;;4937260;29;20437;-84
2022/06/07 01:52:37;;;;;;;1.83;1.40;;;16.00;99.90;;;;;;4943124;29;20448;-83
2022/06/07 01:55:05;;;;;;;2.10;1.40;;;16.00;99.90;;;;;;4939556;29;20193;-83
2022/06/07 01:57:31;;;;;;;4.20;1.23;;;15.90;99.90;;;;;;4938857;29;20185;-84
2022/06/07 01:59:58;;;;;;;3.70;1.43;;;15.90;99.90;;;;;;4947683;29;20483;-84
2022/06/07 02:02:24;;;;;;;1.90;1.13;;;16.10;99.90;;;;;;4941917;29;20173;-84
2022/06/07 02:04:51;;;;;;;2.13;1.40;;;16.10;99.90;;;;;;4938309;29;20429;-86
2022/06/07 02:07:19;;;;;;;1.40;1.30;;;16.10;99.90;;;;;;4940397;29;20803;-84
2022/06/07 02:09:44;;;;;;;1.63;1.40;;;16.00;99.90;;;;;;4941745;29;20433;-83
2022/06/07 02:12:11;;;;;;;2.17;1.50;;;16.00;99.90;;;;;;4934943;29;20429;-84
2022/06/07 02:14:38;;;;;;;4.23;1.33;;;16.00;99.90;;;;;;4937016;29;20188;-83
2022/06/07 02:17:04;;;;;;;1.57;1.40;;;15.90;99.90;;;;;;4941519;29;20464;-84
2022/06/07 02:19:30;;;;;;;3.70;1.27;;;15.90;99.90;;;;;;4941957;29;20455;-84
2022/06/07 02:21:55;;;;;;;1.40;1.30;;;15.90;99.90;;;;;;4936433;29;20824;-84
2022/06/07 02:24:21;;;;;;;2.93;1.20;;;15.90;99.90;;;;;;4942573;29;20217;-84
2022/06/07 02:26:48;;;;;;;2.43;1.03;;;16.00;99.90;;;;;;4932090;29;20209;-84
2022/06/07 02:29:17;;;;;;;1.57;1.30;;;16.10;99.90;;;;;;4935038;29;20183;-84
2022/06/07 02:31:49;;;;;;;2.47;1.00;;;16.10;99.90;;;;;;4942358;29;20901;-83
2022/06/07 02:34:16;;;;;;;1.00;0.90;;;16.00;99.90;;;;;;4938635;29;20457;-83
2022/06/07 02:36:46;;;;;;;1.30;1.10;;;15.90;99.90;;;;;;4935603;29;20472;-84
2022/06/07 02:39:12;;;;;;;2.30;1.23;;;16.00;99.90;;;;;;4934763;29;20417;-84
2022/06/07 02:41:40;;;;;;;7.50;1.30;;;16.10;99.90;;;;;;4940059;29;20435;-83
2022/06/07 02:44:05;;;;;;;2.00;1.23;;;16.20;99.90;;;;;;4937089;29;20205;-83
2022/06/07 02:46:31;;;;;;;1.87;1.37;;;16.20;99.90;;;;;;4936682;29;20459;-84
2022/06/07 02:48:57;;;;;;;2.87;0.93;;;16.20;99.90;;;;;;4938129;29;20186;-83
2022/06/07 02:51:22;;;;;;;1.27;1.17;;;16.10;99.90;;;;;;4943702;29;20212;-83
2022/06/07 02:53:48;;;;;;;1.50;1.00;;;16.10;99.90;;;;;;4942030;29;20204;-83
2022/06/07 02:56:14;;;;;;;2.00;1.00;;;16.20;99.90;;;;;;4936045;29;20182;-83
2022/06/07 02:58:39;;;;;;;1.87;1.00;;;16.10;99.90;;;;;;4936691;29;20186;-83
2022/06/07 03:01:04;;;;;;;12.47;1.63;;;16.10;99.90;;;;;;4938795;29;20745;-81
2022/06/07 03:03:30;;;;;;;2.17;1.27;;;16.00;99.90;;;;;;4935388;29;20269;-83
2022/06/07 03:05:56;;;;;;;2.40;1.20;;;16.00;99.90;;;;;;4941240;29;20668;-83
2022/06/07 03:08:23;;;;;;;2.60;0.83;;;15.90;99.90;;;;;;4935900;29;20296;-83
2022/06/07 03:10:49;;;;;;;3.97;1.50;;;16.00;99.90;;;;;;4934370;29;20600;-84
2022/06/07 03:13:16;;;;;;;1.43;1.10;;;16.00;99.90;;;;;;4935191;29;20467;-82
2022/06/07 03:15:42;;;;;;;1.67;0.70;;;16.10;99.90;;;;;;4934005;29;20445;-83
2022/06/07 03:18:09;;;;;;;1.40;1.00;;;16.00;99.90;;;;;;4935026;29;20437;-84
2022/06/07 03:20:35;;;;;;;2.10;0.83;;;16.00;99.90;;;;;;4935905;29;20449;-83
2022/06/07 03:23:01;;;;;;;1.57;1.00;;;16.00;99.90;;;;;;4938590;29;20559;-84
2022/06/07 03:25:26;;;;;;;2.73;1.23;;;16.10;99.90;;;;;;4938757;29;20428;-84
2022/06/07 03:27:52;;;;;;;1.10;1.00;;;16.20;99.90;;;;;;4934110;29;20209;-83
2022/06/07 03:30:18;;;;;;;1.00;0.90;;;16.20;99.90;;;;;;4938079;29;20241;-84
2022/06/07 03:32:45;;;;;;;5.60;1.30;;;16.20;99.90;;;;;;4940914;29;20201;-83
2022/06/07 03:35:12;;;;;;;1.80;1.10;;;16.30;99.90;;;;;;4941417;29;20428;-84
2022/06/07 03:37:38;;;;;;;4.23;1.10;;;16.40;99.90;;;;;;4932855;29;20477;-85
2022/06/07 03:40:12;;;;;;;2.27;0.80;;;16.40;99.90;;;;;;4930725;29;20447;-84
2022/06/07 03:42:38;;;;;;;2.07;1.20;;;16.30;99.90;;;;;;4932182;29;20464;-82
2022/06/07 03:45:04;;;;;;;1.27;0.80;;;16.20;99.90;;;;;;4935978;29;20464;-81
2022/06/07 03:47:30;;;;;;;3.53;1.10;;;16.10;99.90;;;;;;4944430;29;20216;-82
2022/06/07 03:49:56;;;;;;;1.70;0.97;;;16.20;99.90;;;;;;4943965;29;20422;-82
2022/06/07 03:52:21;;;;;;;3.93;1.17;;;16.10;99.90;;;;;;4936047;29;20294;-82
2022/06/07 03:54:49;;;;;;;1.63;0.80;;;16.00;99.90;;;;;;4934694;29;20240;-81
2022/06/07 03:57:14;;;;;;;2.80;1.07;;;15.90;99.90;;;;;;4931940;29;20174;-81
2022/06/07 03:59:40;;;;;;;0.90;0.90;;;15.90;99.90;;;;;;4928424;29;20453;-84
2022/06/07 04:02:06;;;;;;;1.83;1.50;;;16.00;99.90;;;;;;4939529;29;20186;-83
2022/06/07 04:04:33;;;;;;;1.70;1.00;;;16.00;99.90;;;;;;4936422;29;20228;-83
2022/06/07 04:09:43;;;;;;;1.60;0.90;;;16.10;99.90;;;;;;4932189;29;20462;-83
2022/06/07 04:12:11;;;;;;;1.03;0.80;;;16.20;99.90;;;;;;4933935;29;20429;-83
2022/06/07 04:14:41;;;;;;;2.23;1.00;;;16.30;99.90;;;;;;4941539;29;20229;-83
2022/06/07 04:17:07;;;;;;;0.83;0.70;;;16.30;99.90;;;;;;4938298;29;20429;-83
2022/06/07 04:19:34;;;;;;;1.60;0.60;;;16.50;99.90;;;;;;4942209;29;20472;-84
2022/06/07 04:22:01;;;;;;;1.27;0.80;;;16.60;99.90;;;;;;4940183;29;20495;-83
2022/06/07 04:24:26;;;;;;;0.87;0.87;;;16.60;99.90;;;;;;4937107;29;20890;-85
2022/06/07 04:26:52;;;;;;;1.00;0.80;;;16.60;99.90;;;;;;4940527;29;20457;-84
2022/06/07 04:29:17;;;;;;;0.80;0.60;;;16.70;99.90;;;;;;4935753;29;20186;-84
2022/06/07 04:31:43;;;;;;;2.77;0.83;;;16.70;99.90;;;;;;4937475;29;20181;-82
2022/06/07 04:34:09;;;;;;;2.13;0.70;;;16.60;99.90;;;;;;4933864;29;20205;-83
2022/06/07 04:36:36;;;;;;;0.60;0.60;;;16.60;99.90;;;;;;4934526;29;20185;-83
2022/06/07 04:39:04;;;;;;;1.07;0.97;;;16.60;99.90;;;;;;4939557;29;20194;-83
2022/06/07 04:41:29;;;;;;;0.90;0.90;;;16.50;99.90;;;;;;4931182;29;21028;-82
2022/06/07 04:43:56;;;;;;;1.20;1.10;;;16.50;99.90;;;;;;4954019;23;21357;-82
2022/06/07 04:46:22;;;;;;;3.17;1.00;;;16.50;99.90;;;;;;4951080;28;20185;-84
2022/06/07 04:48:49;;;;;;;1.63;1.20;;;16.40;99.90;;;;;;4951610;28;20448;-82
2022/06/07 04:51:18;;;;;;;0.73;0.70;;;16.40;99.90;;;;;;4951467;28;20940;-80
2022/06/07 04:53:44;;;;;;;1.53;1.07;;;16.40;99.90;;;;;;4940649;28;20461;-81
2022/06/07 04:56:12;;;;;;;5.93;0.90;;;16.60;99.90;;;;;;4933975;29;20527;-84
2022/06/07 04:58:38;;;;;;;1.20;1.10;;;16.60;99.90;;;;;;4928912;29;20197;-84
2022/06/07 05:01:11;;;;;;;1.53;1.30;;;16.70;99.90;;;;;;4932657;29;20436;-83
2022/06/07 05:03:37;;;;;;;4.27;0.90;;;16.60;99.90;;;;;;4931559;29;20547;-86
2022/06/07 05:06:03;;;;;;;3.50;1.27;;;16.60;99.90;;;;;;4930595;29;20551;-81
2022/06/07 05:08:29;;;;;;;3.27;1.03;;;16.70;99.90;;;;;;4933469;29;20512;-83
2022/06/07 05:10:54;;;;;;;2.83;1.10;;;16.90;99.90;;;;;;4936794;29;20460;-83
2022/06/07 05:13:21;;;;;;;0.87;0.83;;;17.20;99.90;;;;;;4933679;29;20211;-82
2022/06/07 05:15:56;;;;;;;0.73;0.60;;;17.20;99.90;;;;;;4929697;29;20173;-82
2022/06/07 05:18:21;;;;;;;3.50;0.83;;;17.50;99.90;;;;;;4931621;29;20817;-82
2022/06/07 05:20:47;;;;;;;1.97;1.00;;;17.80;99.90;;;;;;4933896;29;20464;-83
2022/06/07 05:23:12;;;;;;;1.97;0.70;;;18.00;99.90;;;;;;4932299;29;20205;-82
2022/06/07 05:25:38;;;;;;;4.07;1.20;;;18.30;99.90;;;;;;4920987;29;20173;-82
2022/06/07 05:28:04;;;;;;;2.13;1.07;;;18.10;99.90;;;;;;4922945;29;20284;-80
2022/06/07 05:30:30;;;;;;;1.03;0.93;;;17.90;99.90;;;;;;4932505;29;20184;-84
2022/06/07 05:32:55;;;;;;;1.20;0.83;;;18.10;99.90;;;;;;4930699;29;20735;-84
2022/06/07 05:35:21;;;;;;;3.93;1.10;;;18.20;99.90;;;;;;4920054;29;20219;-82
2022/06/07 05:37:47;;;;;;;1.27;0.87;;;18.70;99.90;;;;;;4919847;29;20201;-82
2022/06/07 05:40:12;;;;;;;3.80;1.17;;;19.30;99.90;;;;;;4914181;29;20248;-84
2022/06/07 05:42:38;;;;;;;1.40;1.07;;;20.20;99.90;;;;;;4916699;29;20841;-82
2022/06/07 05:45:05;;;;;;;1.00;0.87;;;22.00;99.90;;;;;;4915116;29;20905;-81
2022/06/07 05:47:30;;;;;;;4.30;0.80;;;24.40;99.90;;;;;;4919412;29;20240;-80
2022/06/07 05:49:56;;;;;;;2.27;1.30;;;26.50;99.90;;;;;;4912476;29;20579;-81
2022/06/07 05:52:22;;;;;;;2.90;1.13;;;;;;;;;;4914761;29;20192;-80
2022/06/07 05:54:48;;;;;;;2.80;1.20;;;;;;;;;;4936002;28;20188;-81
2022/06/07 05:57:14;;;;;;;1.40;1.17;;;;;;;;;;4919262;29;20504;-82
2022/06/07 05:59:40;;;;;;;1.00;0.80;;;;;;;;;;4916120;29;20441;-80
2022/06/07 06:02:06;;;;;;;1.53;0.90;;;30.40;86.10;;;;;;4908970;29;20446;-82
2022/06/07 06:04:32;;;;;;;1.47;1.10;;;;;;;;;;4915923;29;20647;-83
2022/06/07 06:06:58;;;;;;;2.03;1.30;;;;;;;;;;4909734;29;20466;-82
2022/06/07 06:12:09;;;;;;;3.33;2.50;;;34.20;70.20;;;;;;4919920;29;20538;-82
2022/06/07 06:14:35;;;;;;;3.50;3.40;;;;;;;;;;4920212;29;20456;-82
2022/06/07 06:17:01;;;;;;;4.40;4.10;;;;;;;;;;4920193;29;20214;-83
2022/06/07 06:19:27;;;;;;;5.13;4.83;;;;;;;;;;4921748;29;20437;-82
2022/06/07 06:21:53;;;;;;;5.23;4.90;;;;;;;;;;4919010;29;20441;-83
2022/06/07 06:24:23;;;;;;;4.53;4.23;;;30.30;80.10;;;;;;4926113;29;20508;-83
2022/06/07 06:26:48;;;;;;;4.67;4.27;;;28.60;81.50;;;;;;4928632;29;21008;-84
2022/06/07 06:29:14;;;;;;;2.20;2.00;;;;;;;;;;4933271;29;20454;-81
2022/06/07 06:31:41;;;;;;;2.20;1.83;;;25.40;83.90;;;;;;4933057;29;20173;-83
2022/06/07 06:34:07;;;;;;;4.63;1.70;;;25.30;84.60;;;;;;4919493;29;20465;-82
2022/06/07 06:36:32;;;;;;;1.20;1.10;;;24.10;91.30;;;;;;4928367;29;20460;-81
2022/06/07 06:38:59;;;;;;;2.20;1.30;;;24.00;94.00;;;;;;4934467;29;20443;-81
2022/06/07 06:41:27;;;;;;;2.00;1.20;;;27.00;94.90;;;;;;4925486;29;20197;-84
2022/06/07 06:43:56;;;;;;;1.20;1.03;;;28.40;90.80;;;;;;4922241;29;20495;-83
2022/06/07 06:46:27;;;;;;;1.70;1.43;;;30.50;86.60;;;;;;4926515;29;20515;-85
2022/06/07 06:48:54;;;;;;;3.10;1.60;;;34.60;82.90;;;;;;4925978;29;20737;-83
2022/06/07 06:51:22;;;;;;;2.03;1.93;;;28.90;83.90;;;;;;4926482;29;20448;-83
2022/06/07 06:53:49;;;;;;;4.40;1.90;;;30.00;87.50;;;;;;4928608;29;20511;-83
2022/06/07 06:56:18;;;;;;;3.13;2.00;;;29.90;77.30;;;;;;4924398;29;20478;-84
2022/06/07 06:58:44;;;;;;;1.93;1.83;;;26.40;86.50;;;;;;4926420;29;21002;-83
2022/06/07 07:01:13;;;;;;;2.33;1.63;;;28.50;92.70;;;;;;4926384;29;20444;-83
2022/06/07 07:03:40;;;;;;;1.83;1.73;;;26.50;80.70;;;;;;4925142;29;20461;-83
2022/06/07 07:06:08;;;;;;;1.50;1.40;;;31.20;87.10;;;;;;4928606;29;20494;-80
2022/06/07 07:08:36;;;;;;;2.57;2.47;;;31.20;87.30;;;;;;4924769;29;20994;-83
2022/06/07 07:11:14;;;;;;;2.80;2.60;;;30.90;72.20;;;;;;4924240;29;20440;-82
2022/06/07 07:13:40;;;;;;;2.80;2.70;;;30.00;76.20;;;;;;4923018;29;20532;-81
2022/06/07 07:16:09;;;;;;;3.93;3.00;;;28.60;77.70;;;;;;4923649;29;20447;-82
2022/06/07 07:18:35;;;;;;;2.97;2.20;;;;;;;;;;4931017;29;20450;-83
2022/06/07 07:21:07;;;;;;;3.07;2.83;;;30.90;90.00;;;;;;4927540;29;20539;-82
2022/06/07 07:23:33;;;;;;;10.37;3.30;;;28.70;76.30;;;;;;4928700;29;20464;-80
2022/06/07 07:26:12;;;;;;;2.30;2.20;;;26.10;85.90;;;;;;4932630;29;21039;-81
2022/06/07 07:28:40;;;;;;;1.50;1.40;;;25.60;81.80;;;;;;4933481;29;20466;-82
2022/06/07 07:31:09;;;;;;;1.50;1.40;;;22.70;93.70;;;;;;4933516;29;20863;-81
2022/06/07 07:33:35;;;;;;;2.77;1.30;;;22.70;97.60;;;;;;4928759;29;20472;-85
2022/06/07 07:36:04;;;;;;;1.90;1.27;;;23.60;98.40;;;;;;4933123;29;20807;-84
2022/06/07 07:38:29;;;;;;;4.70;1.80;;;24.10;98.20;;;;;;4937803;29;20442;-84
2022/06/07 07:40:55;;;;;;;2.40;1.63;;;;;;;;;;4932421;29;20454;-84
2022/06/07 07:43:21;;;;;;;2.97;1.33;;;25.90;96.70;;;;;;4919624;29;20729;-82
2022/06/07 07:45:51;;;;;;;5.10;1.60;;;24.80;94.90;;;;;;4937769;29;20668;-83
2022/06/07 07:48:18;;;;;;;2.80;1.40;;;24.60;96.60;;;;;;4933446;29;20223;-82
2022/06/07 07:50:44;;;;;;;2.60;1.43;;;23.90;96.80;;;;;;4926055;29;20509;-81
2022/06/07 07:53:10;;;;;;;1.60;1.30;;;24.40;98.60;;;;;;4931510;29;20547;-83
2022/06/07 07:55:41;;;;;;;1.43;1.33;;;24.30;97.70;;;;;;4935407;29;20462;-83
2022/06/07 07:58:07;;;;;;;2.23;1.50;;;24.80;96.50;;;;;;4935551;29;20205;-84
2022/06/07 08:00:33;;;;;;;1.90;1.40;;;24.60;96.90;;;;;;4934587;29;20436;-81
2022/06/07 08:02:58;;;;;;;1.73;1.63;;;25.30;97.80;;;;;;4936496;29;20196;-82
2022/06/07 08:05:24;;;;;;;1.33;1.23;;;;;;;;;;4929082;29;20190;-82
2022/06/07 08:07:51;;;;;;;2.80;1.40;;;;;;;;;;4930499;29;22335;-81
2022/06/07 08:10:17;;;;;;;1.50;1.40;;;;;;;;;;4932133;29;20441;-83
2022/06/07 08:12:44;;;;;;;2.93;1.97;;;;;;;;;;4933182;29;20459;-82
2022/06/07 08:15:11;;;;;;;2.90;1.60;;;25.10;91.10;;;;;;4933559;29;20443;-81
2022/06/07 08:17:36;;;;;;;2.80;1.40;;;25.30;89.80;;;;;;4934429;29;22296;-81
2022/06/07 08:20:02;;;;;;;2.47;1.37;;;;;;;;;;4935493;29;20499;-81
2022/06/07 08:22:29;;;;;;;3.53;1.77;;;22.50;98.30;;;;;;4932705;29;20300;-80
2022/06/07 08:24:54;;;;;;;3.67;1.80;;;;;;;;;;4932869;29;20452;-84
2022/06/07 08:27:20;;;;;;;1.20;1.00;;;;;;;;;;4930654;29;20909;-81
2022/06/07 08:29:46;;;;;;;3.43;1.50;;;;;;;;;;4931395;29;20547;-81
2022/06/07 08:32:12;;;;;;;2.60;1.30;;;;;;;;;;4929042;29;20433;-83
2022/06/07 08:37:37;;;;;;;1.77;1.40;;;26.80;93.80;;;;;;4938398;29;20478;-81
2022/06/07 08:40:19;;;;;;;2.60;1.50;;;27.50;90.10;;;;;;4934708;29;20795;-85
2022/06/07 08:42:58;;;;;;;1.70;1.60;;;29.20;95.40;;;;;;4937022;29;20492;-82
2022/06/07 08:45:33;;;;;;;3.20;1.70;;;29.20;88.90;;;;;;4932633;29;20449;-83
2022/06/07 08:48:05;;;;;;;4.03;2.10;;;28.70;90.70;;;;;;4925024;29;20495;-82
2022/06/07 08:50:44;;;;;;;2.27;2.07;;;28.30;80.00;;;;;;4933650;29;20455;-82
2022/06/07 08:53:28;;;;;;;4.40;1.97;;;29.20;82.00;;;;;;4938394;29;20462;-82
2022/06/07 08:55:58;;;;;;;3.20;2.60;;;29.40;92.40;;;;;;4934991;29;20447;-83
2022/06/07 08:58:28;;;;;;;5.30;3.90;;;27.80;81.60;;;;;;4933239;29;21017;-82
2022/06/07 09:00:57;;;;;;;2.57;2.37;;;27.80;85.60;;;;;;4931497;29;20456;-82
2022/06/07 09:03:23;;;;;;;2.07;1.97;;;;;;;;;;4951396;28;21164;-85
2022/06/07 09:05:54;;;;;;;2.90;2.70;;;28.60;82.80;;;;;;4935567;29;20462;-83
2022/06/07 09:08:20;;;;;;;2.03;1.90;;;29.20;87.70;;;;;;4936019;29;20538;-83
2022/06/07 09:13:35;;;;;;;3.80;3.00;;;28.60;78.30;;;;;;4930651;29;20489;-82
2022/06/07 09:16:01;;;;;;;2.60;2.40;;;29.70;92.80;;;;;;4934224;29;20823;-84
2022/06/07 09:18:30;;;;;;;3.30;3.10;;;30.10;80.50;;;;;;4933637;29;20452;-83
2022/06/07 09:21:02;;;;;;;2.90;2.70;;;31.10;77.50;;;;;;4934555;29;20543;-83
2022/06/07 09:23:43;;;;;;;4.50;4.10;;;32.40;73.80;;;;;;4929048;29;20470;-82
2022/06/07 09:26:36;;;;;;;6.70;4.93;;;31.10;66.40;;;;;;4932523;29;20458;-84
2022/06/07 09:29:16;;;;;;;15.43;6.13;;;26.20;74.40;;;;;;4930089;29;20528;-80
2022/06/07 09:31:43;;;;;;;3.23;2.07;;;24.80;86.20;;;;;;4933046;29;20787;-83
2022/06/07 09:34:23;;;;;;;2.10;2.00;;;24.30;88.50;;;;;;4931915;29;20490;-81
2022/06/07 09:37:15;;;;;;;5.23;2.07;;;24.90;94.00;;;;;;4932735;29;20516;-82
2022/06/07 09:39:43;;;;;;;3.07;2.13;;;27.00;90.30;;;;;;4931272;29;20455;-82
2022/06/07 09:42:21;;;;;;;2.60;1.80;;;29.20;89.10;;;;;;4934176;29;20861;-80
2022/06/07 09:45:02;;;;;;;5.20;3.80;;;28.20;87.20;;;;;;4926443;29;20480;-81
2022/06/07 09:47:30;;;;;;;7.03;5.13;;;27.60;79.20;;;;;;4929851;29;20467;-82
2022/06/07 09:50:20;;;;;;;11.63;4.90;;;28.80;80.20;;;;;;4932995;29;20452;-82
2022/06/07 09:52:52;;;;;;;3.50;2.60;;;28.80;78.70;;;;;;4945107;28;20456;-81
2022/06/07 09:55:42;;;;;;;2.70;2.50;;;26.70;79.70;;;;;;4931716;29;20445;-83
2022/06/07 09:58:41;;;;;;;2.33;2.23;;;25.60;87.60;;;;;;4926138;29;20440;-82
2022/06/07 10:01:17;;;;;;;2.40;1.80;;;25.50;87.00;;;;;;4911213;29;20480;-84
2022/06/07 10:04:16;;;;;;;1.97;1.77;;;25.30;89.40;;;;;;4926445;29;20462;-80
2022/06/07 10:06:49;;;;;;;3.40;2.40;;;25.70;90.70;;;;;;4937595;29;20526;-83
2022/06/07 10:09:25;;;;;;;1.90;1.80;;;27.80;89.90;;;;;;4925379;29;20435;-82
2022/06/07 10:12:09;;;;;;;2.40;2.20;;;28.20;76.60;;;;;;4933571;29;21127;-82
2022/06/07 10:14:35;;;;;;;2.80;2.30;;;;;;;;;;4934603;29;20551;-81
2022/06/07 10:17:27;;;;;;;2.70;2.50;;;28.40;92.60;;;;;;4929790;29;20599;-84
2022/06/07 10:20:06;;;;;;;3.20;3.00;;;29.00;75.80;;;;;;4926394;29;20441;-84
2022/06/07 10:22:49;;;;;;;3.23;2.93;;;30.60;87.00;;;;;;4916516;29;20515;-83
2022/06/07 10:25:37;;;;;;;3.63;3.30;;;29.70;78.00;;;;;;4922054;29;22116;-83
2022/06/07 10:28:21;;;;;;;4.40;4.20;;;30.70;74.40;;;;;;4927029;29;20840;-81
2022/06/07 10:30:55;;;;;;;6.87;4.90;;;31.30;70.30;;;;;;4927635;29;20453;-81
2022/06/07 10:33:50;;;;;;;5.13;4.73;;;28.80;73.60;;;;;;4925820;29;20720;-83
2022/06/07 10:36:45;;;;;;;8.33;4.00;;;28.60;75.30;;;;;;4921110;29;20539;-82
2022/06/07 10:39:39;;;;;;;3.00;2.80;;;27.00;84.30;;;;;;4921583;29;21234;-82
2022/06/07 10:42:34;;;;;;;2.43;2.23;;;26.00;81.80;;;;;;4930895;29;20953;-81
2022/06/07 10:45:14;;;;;;;2.37;2.17;;;24.10;82.60;;;;;;4941713;23;20534;-82
2022/06/07 10:47:50;;;;;;;5.03;1.50;;;23.90;91.10;;;;;;4932029;29;20903;-80
2022/06/07 10:50:37;;;;;;;2.60;1.50;;;23.90;90.80;;;;;;4930769;28;20443;-80
2022/06/07 10:53:14;;;;;;;2.13;1.50;;;24.30;92.20;;;;;;4932406;29;20501;-83
2022/06/07 10:55:49;;;;;;;1.93;1.00;;;24.90;91.60;;;;;;4930716;29;20937;-83
2022/06/07 10:58:26;;;;;;;3.10;1.53;;;24.60;91.30;;;;;;4936776;29;20442;-80
2022/06/07 11:01:14;;;;;;;2.10;1.47;;;24.80;92.50;;;;;;4933689;29;20444;-82
2022/06/07 11:04:09;;;;;;;1.87;1.63;;;25.20;91.30;;;;;;4937740;29;20468;-82
2022/06/07 11:09:42;;;;;;;2.07;1.57;;;24.60;94.20;;;;;;4939791;29;20523;-81
2022/06/07 11:12:22;;;;;;;2.23;1.50;;;24.20;91.50;;;;;;4939737;29;20421;-80
2022/06/07 11:14:48;;;;;;;3.73;1.50;;;;;;;;;;4927536;29;20452;-80
2022/06/07 11:17:32;;;;;;;2.63;1.50;;;23.10;93.30;;;;;;4938421;29;20443;-80
2022/06/07 11:20:12;;;;;;;3.10;1.50;;;22.70;94.60;;;;;;4937636;29;20487;-79
2022/06/07 11:22:52;;;;;;;1.90;1.37;;;22.90;95.10;;;;;;4935788;29;21062;-81
2022/06/07 11:25:38;;;;;;;5.63;1.80;;;22.80;94.30;;;;;;4937457;29;20452;-80
2022/06/07 11:28:11;;;;;;;5.60;1.37;;;22.90;96.90;;;;;;4943234;28;20551;-82
2022/06/07 11:30:37;;;;;;;2.97;1.10;;;;;;;;;;4935077;29;20441;-80
2022/06/07 11:33:25;;;;;;;1.80;0.87;;;23.40;94.40;;;;;;4934114;29;20464;-81
2022/06/07 11:36:13;;;;;;;3.70;1.93;;;23.50;96.50;;;;;;4937223;29;20440;-81
2022/06/07 11:38:57;;;;;;;1.33;1.20;;;23.30;96.60;;;;;;4930805;29;20455;-80
2022/06/07 11:41:37;;;;;;;5.00;1.80;;;23.50;95.60;;;;;;4935634;29;20464;-82
2022/06/07 11:44:11;;;;;;;1.37;1.27;;;23.50;97.10;;;;;;4940457;28;20464;-83
2022/06/07 11:46:52;;;;;;;1.30;1.20;;;23.60;97.30;;;;;;4936437;29;20440;-81
2022/06/07 11:49:21;;;;;;;1.57;1.47;;;;;;;;;;4939401;29;21205;-81
2022/06/07 11:52:13;;;;;;;1.27;1.20;;;22.90;94.80;;;;;;4954841;28;20524;-80
2022/06/07 11:54:40;;;;;;;2.30;1.40;;;;;;;;;;4932839;29;21138;-83
2022/06/07 11:57:26;;;;;;;2.40;1.30;;;22.20;98.70;;;;;;4934145;29;20507;-81
2022/06/07 11:59:54;;;;;;;1.80;1.40;;;22.40;99.00;;;;;;4926065;29;20447;-81
2022/06/07 12:02:28;;;;;;;1.37;1.27;;;22.60;99.30;;;;;;4924694;29;20436;-82
2022/06/07 12:04:59;;;;;;;1.63;1.20;;;22.40;96.60;;;;;;4948263;28;20464;-80
2022/06/07 12:07:43;;;;;;;2.00;1.10;;;22.40;96.90;;;;;;4937247;29;20503;-81
2022/06/07 12:10:33;;;;;;;1.20;1.07;;;22.60;97.70;;;;;;4938840;29;20439;-81
2022/06/07 12:13:03;;;;;;;5.43;1.80;;;22.30;97.30;;;;;;4937271;28;20815;-82
2022/06/07 12:15:40;;;;;;;1.57;1.47;;;23.20;98.40;;;;;;4933896;29;20440;-81
2022/06/07 12:18:20;;;;;;;2.60;2.40;;;24.10;99.50;;;;;;4926230;29;20485;-80
2022/06/07 12:20:57;;;;;;;4.90;1.50;;;23.70;95.50;;;;;;4935137;29;20518;-79
2022/06/07 12:23:32;;;;;;;2.40;1.60;;;24.30;98.80;;;;;;4935362;29;20571;-81
2022/06/07 12:25:59;;;;;;;1.40;1.30;;;24.40;95.50;;;;;;4934062;29;20437;-80
2022/06/07 12:28:28;;;;;;;4.40;1.60;;;24.00;96.20;;;;;;4933604;29;20543;-78
2022/06/07 12:30:54;;;;;;;2.80;1.00;;;;;;;;;;4935086;29;20452;-81
2022/06/07 12:33:33;;;;;;;1.20;1.10;;;23.00;97.60;;;;;;4936515;29;20460;-81
2022/06/07 12:36:02;;;;;;;1.00;1.00;;;22.90;96.40;;;;;;4931445;29;20441;-80
2022/06/07 12:38:30;;;;;;;0.90;0.80;;;22.30;96.00;;;;;;4935995;29;20441;-81
2022/06/07 12:41:12;;;;;;;1.67;0.80;;;22.30;97.00;;;;;;4934625;29;20440;-81
2022/06/07 12:43:44;;;;;;;1.97;1.10;;;22.20;95.30;;;;;;4937892;29;20587;-84
2022/06/07 12:46:24;;;;;;;1.77;1.20;;;22.30;97.10;;;;;;4935176;29;20445;-79
2022/06/07 12:48:51;;;;;;;3.40;1.50;;;22.20;96.30;;;;;;4937499;29;20480;-80
2022/06/07 12:51:36;;;;;;;1.90;1.70;;;22.60;97.50;;;;;;4936145;29;20490;-82
2022/06/07 12:54:22;;;;;;;1.03;0.83;;;22.70;98.00;;;;;;4933330;29;21016;-81
2022/06/07 12:56:48;;;;;;;1.77;1.20;;;22.40;98.00;;;;;;4932588;29;20527;-81
2022/06/07 12:59:21;;;;;;;1.27;1.17;;;22.30;99.90;;;;;;4935173;29;21570;-81
2022/06/07 13:01:49;;;;;;;1.27;1.17;;;23.10;98.80;;;;;;4937485;29;20451;-79
2022/06/07 13:04:36;;;;;;;1.17;0.73;;;22.80;99.80;;;;;;4936428;29;20519;-81
2022/06/07 13:07:22;;;;;;;2.40;0.90;;;22.70;97.70;;;;;;4937973;29;20969;-80
2022/06/07 13:09:50;;;;;;;1.73;1.13;;;22.40;98.70;;;;;;4939964;29;20418;-81
2022/06/07 13:12:21;;;;;;;4.20;1.30;;;22.00;99.80;;;;;;4937888;29;20445;-81
2022/06/07 13:14:47;;;;;;;2.10;1.50;;;22.70;99.00;;;;;;4930896;29;20826;-81
2022/06/07 13:17:27;;;;;;;1.13;0.90;;;22.80;99.60;;;;;;4935504;29;20460;-81
2022/06/07 13:19:53;;;;;;;2.60;1.30;;;23.30;99.90;;;;;;4935752;29;20445;-81
2022/06/07 13:22:19;;;;;;;6.47;1.23;;;;;;;;;;4936814;29;20638;-80
2022/06/07 13:24:48;;;;;;;1.03;0.83;;;23.50;96.80;;;;;;4938748;28;20205;-81
2022/06/07 13:27:32;;;;;;;2.30;1.00;;;23.30;97.20;;;;;;4934161;29;21129;-80
2022/06/07 13:29:59;;;;;;;2.80;0.90;;;22.80;97.00;;;;;;4936822;29;20441;-83
2022/06/07 13:32:27;;;;;;;3.17;1.10;;;23.00;99.10;;;;;;4932681;29;20445;-81
2022/06/07 13:35:03;;;;;;;1.00;0.80;;;23.40;99.60;;;;;;4934091;29;20528;-79